sensor_id;sensor_type;location;lat;lon;timestamp;P1;durP1;ratioP1;P2;durP2;ratioP2
74821;SDS011;63353;48.702;8.884;2023-07-20T00:02:24;7.23;;;6.73;;
74821;SDS011;63353;48.702;8.884;2023-07-20T00:04:49;7.90;;;6.60;;
74821;SDS011;63353;48.702;8.884;2023-07-20T00:07:21;6.80;;;6.30;;
74821;SDS011;63353;48.702;8.884;2023-07-20T00:09:46;6.67;;;6.27;;
74821;SDS011;63353;48.702;8.884;2023-07-20T00:12:15;6.90;;;6.30;;
74821;SDS011;63353;48.702;8.884;2023-07-20T00:14:44;6.63;;;6.03;;
74821;SDS011;63353;48.702;8.884;2023-07-20T00:17:10;7.20;;;6.60;;
74821;SDS011;63353;48.702;8.884;2023-07-20T00:19:48;7.03;;;6.53;;
74821;SDS011;63353;48.702;8.884;2023-07-20T00:22:14;7.30;;;6.70;;
74821;SDS011;63353;48.702;8.884;2023-07-20T00:24:45;7.07;;;6.37;;
74821;SDS011;63353;48.702;8.884;2023-07-20T00:27:11;7.20;;;6.60;;
74821;SDS011;63353;48.702;8.884;2023-07-20T00:29:37;6.63;;;6.13;;
74821;SDS011;63353;48.702;8.884;2023-07-20T00:32:03;6.73;;;6.13;;
74821;SDS011;63353;48.702;8.884;2023-07-20T00:34:30;7.13;;;6.50;;
74821;SDS011;63353;48.702;8.884;2023-07-20T00:36:59;6.93;;;6.43;;
74821;SDS011;63353;48.702;8.884;2023-07-20T00:39:24;7.13;;;6.63;;
74821;SDS011;63353;48.702;8.884;2023-07-20T00:41:56;7.40;;;6.70;;
74821;SDS011;63353;48.702;8.884;2023-07-20T00:44:31;6.77;;;6.27;;
74821;SDS011;63353;48.702;8.884;2023-07-20T00:46:57;7.40;;;6.70;;
74821;SDS011;63353;48.702;8.884;2023-07-20T00:49:25;7.30;;;6.60;;
74821;SDS011;63353;48.702;8.884;2023-07-20T00:52:04;7.10;;;6.60;;
74821;SDS011;63353;48.702;8.884;2023-07-20T00:54:32;6.40;;;5.90;;
74821;SDS011;63353;48.702;8.884;2023-07-20T00:57:02;6.60;;;6.10;;
74821;SDS011;63353;48.702;8.884;2023-07-20T00:59:30;7.20;;;6.50;;
74821;SDS011;63353;48.702;8.884;2023-07-20T01:01:56;7.13;;;6.57;;
74821;SDS011;63353;48.702;8.884;2023-07-20T01:04:25;7.03;;;6.33;;
74821;SDS011;63353;48.702;8.884;2023-07-20T01:09:52;7.23;;;6.63;;
74821;SDS011;63353;48.702;8.884;2023-07-20T01:12:41;6.83;;;6.20;;
74821;SDS011;63353;48.702;8.884;2023-07-20T01:15:11;7.50;;;6.90;;
74821;SDS011;63353;48.702;8.884;2023-07-20T01:17:37;7.20;;;6.60;;
74821;SDS011;63353;48.702;8.884;2023-07-20T01:20:06;7.23;;;6.53;;
74821;SDS011;63353;48.702;8.884;2023-07-20T01:22:47;7.10;;;6.50;;
74821;SDS011;63353;48.702;8.884;2023-07-20T01:31:43;6.67;;;6.07;;
74821;SDS011;63353;48.702;8.884;2023-07-20T01:34:10;6.80;;;6.40;;
74821;SDS011;63353;48.702;8.884;2023-07-20T01:36:40;6.43;;;6.03;;
74821;SDS011;63353;48.702;8.884;2023-07-20T01:39:18;6.30;;;5.90;;
74821;SDS011;63353;48.702;8.884;2023-07-20T01:41:45;6.87;;;6.27;;
74821;SDS011;63353;48.702;8.884;2023-07-20T01:44:14;6.77;;;6.30;;
74821;SDS011;63353;48.702;8.884;2023-07-20T01:46:40;7.03;;;6.53;;
74821;SDS011;63353;48.702;8.884;2023-07-20T01:49:08;7.03;;;6.30;;
74821;SDS011;63353;48.702;8.884;2023-07-20T01:51:43;6.80;;;6.30;;
74821;SDS011;63353;48.702;8.884;2023-07-20T01:54:08;7.20;;;6.70;;
74821;SDS011;63353;48.702;8.884;2023-07-20T01:56:34;7.23;;;6.73;;
74821;SDS011;63353;48.702;8.884;2023-07-20T01:59:00;7.23;;;6.70;;
74821;SDS011;63353;48.702;8.884;2023-07-20T02:01:31;7.80;;;7.20;;
74821;SDS011;63353;48.702;8.884;2023-07-20T02:03:58;7.57;;;7.03;;
74821;SDS011;63353;48.702;8.884;2023-07-20T02:06:30;8.00;;;7.47;;
74821;SDS011;63353;48.702;8.884;2023-07-20T02:08:55;8.00;;;7.40;;
74821;SDS011;63353;48.702;8.884;2023-07-20T02:11:21;7.37;;;6.80;;
74821;SDS011;63353;48.702;8.884;2023-07-20T02:13:46;7.80;;;7.30;;
74821;SDS011;63353;48.702;8.884;2023-07-20T02:16:27;7.60;;;7.00;;
74821;SDS011;63353;48.702;8.884;2023-07-20T02:18:56;7.70;;;7.20;;
74821;SDS011;63353;48.702;8.884;2023-07-20T02:21:22;8.10;;;7.27;;
74821;SDS011;63353;48.702;8.884;2023-07-20T02:23:51;7.53;;;7.03;;
74821;SDS011;63353;48.702;8.884;2023-07-20T02:26:16;7.53;;;6.93;;
74821;SDS011;63353;48.702;8.884;2023-07-20T02:28:42;8.37;;;7.67;;
74821;SDS011;63353;48.702;8.884;2023-07-20T02:31:07;8.27;;;7.57;;
74821;SDS011;63353;48.702;8.884;2023-07-20T02:33:33;8.10;;;7.43;;
74821;SDS011;63353;48.702;8.884;2023-07-20T02:35:59;8.20;;;7.50;;
74821;SDS011;63353;48.702;8.884;2023-07-20T02:38:24;7.63;;;7.03;;
74821;SDS011;63353;48.702;8.884;2023-07-20T02:40:50;8.23;;;7.63;;
74821;SDS011;63353;48.702;8.884;2023-07-20T02:43:16;8.00;;;7.27;;
74821;SDS011;63353;48.702;8.884;2023-07-20T02:45:45;7.37;;;6.73;;
74821;SDS011;63353;48.702;8.884;2023-07-20T02:48:11;7.67;;;7.07;;
74821;SDS011;63353;48.702;8.884;2023-07-20T02:50:39;7.73;;;7.17;;
74821;SDS011;63353;48.702;8.884;2023-07-20T02:53:11;8.30;;;7.60;;
74821;SDS011;63353;48.702;8.884;2023-07-20T02:55:37;7.83;;;7.23;;
74821;SDS011;63353;48.702;8.884;2023-07-20T02:58:04;7.53;;;7.03;;
74821;SDS011;63353;48.702;8.884;2023-07-20T03:00:33;7.50;;;6.80;;
74821;SDS011;63353;48.702;8.884;2023-07-20T03:03:02;7.80;;;7.10;;
74821;SDS011;63353;48.702;8.884;2023-07-20T03:05:36;7.20;;;6.67;;
74821;SDS011;63353;48.702;8.884;2023-07-20T03:08:17;7.30;;;6.77;;
74821;SDS011;63353;48.702;8.884;2023-07-20T03:10:43;7.10;;;6.50;;
74821;SDS011;63353;48.702;8.884;2023-07-20T03:13:11;7.37;;;6.67;;
74821;SDS011;63353;48.702;8.884;2023-07-20T03:15:44;7.43;;;6.87;;
74821;SDS011;63353;48.702;8.884;2023-07-20T03:18:20;8.00;;;7.30;;
74821;SDS011;63353;48.702;8.884;2023-07-20T03:20:52;7.93;;;7.33;;
74821;SDS011;63353;48.702;8.884;2023-07-20T03:23:24;7.53;;;7.03;;
74821;SDS011;63353;48.702;8.884;2023-07-20T03:25:51;8.17;;;7.50;;
74821;SDS011;63353;48.702;8.884;2023-07-20T03:28:20;7.03;;;6.63;;
74821;SDS011;63353;48.702;8.884;2023-07-20T03:30:45;7.23;;;6.63;;
74821;SDS011;63353;48.702;8.884;2023-07-20T03:33:18;7.33;;;6.63;;
74821;SDS011;63353;48.702;8.884;2023-07-20T03:35:47;7.93;;;7.37;;
74821;SDS011;63353;48.702;8.884;2023-07-20T03:38:18;7.67;;;7.07;;
74821;SDS011;63353;48.702;8.884;2023-07-20T03:40:55;7.57;;;6.97;;
74821;SDS011;63353;48.702;8.884;2023-07-20T03:43:22;7.83;;;7.10;;
74821;SDS011;63353;48.702;8.884;2023-07-20T03:45:49;7.47;;;6.77;;
74821;SDS011;63353;48.702;8.884;2023-07-20T03:48:22;7.20;;;6.67;;
74821;SDS011;63353;48.702;8.884;2023-07-20T03:50:52;6.80;;;6.30;;
74821;SDS011;63353;48.702;8.884;2023-07-20T03:53:21;7.43;;;6.80;;
74821;SDS011;63353;48.702;8.884;2023-07-20T03:55:48;7.23;;;6.73;;
74821;SDS011;63353;48.702;8.884;2023-07-20T03:58:18;7.53;;;6.60;;
74821;SDS011;63353;48.702;8.884;2023-07-20T04:00:45;6.60;;;6.20;;
74821;SDS011;63353;48.702;8.884;2023-07-20T04:03:12;7.27;;;6.67;;
74821;SDS011;63353;48.702;8.884;2023-07-20T04:05:38;7.40;;;6.87;;
74821;SDS011;63353;48.702;8.884;2023-07-20T04:08:04;8.17;;;7.43;;
74821;SDS011;63353;48.702;8.884;2023-07-20T04:10:29;7.67;;;7.07;;
74821;SDS011;63353;48.702;8.884;2023-07-20T04:12:58;8.47;;;7.87;;
74821;SDS011;63353;48.702;8.884;2023-07-20T04:15:27;8.40;;;7.60;;
74821;SDS011;63353;48.702;8.884;2023-07-20T04:17:56;8.27;;;7.67;;
74821;SDS011;63353;48.702;8.884;2023-07-20T04:20:22;8.33;;;7.83;;
74821;SDS011;63353;48.702;8.884;2023-07-20T04:22:51;8.47;;;7.87;;
74821;SDS011;63353;48.702;8.884;2023-07-20T04:25:17;7.73;;;7.00;;
74821;SDS011;63353;48.702;8.884;2023-07-20T04:27:43;7.50;;;7.00;;
74821;SDS011;63353;48.702;8.884;2023-07-20T04:30:11;7.47;;;6.73;;
74821;SDS011;63353;48.702;8.884;2023-07-20T04:32:39;6.60;;;6.17;;
74821;SDS011;63353;48.702;8.884;2023-07-20T04:35:09;6.43;;;5.93;;
74821;SDS011;63353;48.702;8.884;2023-07-20T04:37:34;6.90;;;6.20;;
74821;SDS011;63353;48.702;8.884;2023-07-20T04:40:00;6.30;;;5.90;;
74821;SDS011;63353;48.702;8.884;2023-07-20T04:42:26;6.63;;;6.13;;
74821;SDS011;63353;48.702;8.884;2023-07-20T04:44:52;6.67;;;6.10;;
74821;SDS011;63353;48.702;8.884;2023-07-20T04:47:20;6.80;;;6.30;;
74821;SDS011;63353;48.702;8.884;2023-07-20T04:49:46;6.80;;;6.30;;
74821;SDS011;63353;48.702;8.884;2023-07-20T04:52:15;6.73;;;6.10;;
74821;SDS011;63353;48.702;8.884;2023-07-20T04:54:42;6.50;;;6.00;;
74821;SDS011;63353;48.702;8.884;2023-07-20T04:57:09;6.57;;;6.17;;
74821;SDS011;63353;48.702;8.884;2023-07-20T04:59:36;6.50;;;6.10;;
74821;SDS011;63353;48.702;8.884;2023-07-20T05:02:02;6.53;;;6.13;;
74821;SDS011;63353;48.702;8.884;2023-07-20T05:04:28;6.00;;;5.50;;
74821;SDS011;63353;48.702;8.884;2023-07-20T05:06:53;6.40;;;5.90;;
74821;SDS011;63353;48.702;8.884;2023-07-20T05:09:19;6.03;;;5.70;;
74821;SDS011;63353;48.702;8.884;2023-07-20T05:11:44;6.20;;;5.80;;
74821;SDS011;63353;48.702;8.884;2023-07-20T05:14:12;6.17;;;5.67;;
74821;SDS011;63353;48.702;8.884;2023-07-20T05:16:37;6.67;;;6.27;;
74821;SDS011;63353;48.702;8.884;2023-07-20T05:19:03;6.03;;;5.60;;
74821;SDS011;63353;48.702;8.884;2023-07-20T05:21:29;6.30;;;5.80;;
74821;SDS011;63353;48.702;8.884;2023-07-20T05:23:54;6.23;;;5.80;;
74821;SDS011;63353;48.702;8.884;2023-07-20T05:26:26;6.50;;;5.90;;
74821;SDS011;63353;48.702;8.884;2023-07-20T05:28:51;6.40;;;5.90;;
74821;SDS011;63353;48.702;8.884;2023-07-20T05:31:17;6.23;;;5.77;;
74821;SDS011;63353;48.702;8.884;2023-07-20T05:33:42;6.53;;;5.93;;
74821;SDS011;63353;48.702;8.884;2023-07-20T05:36:08;6.57;;;6.07;;
74821;SDS011;63353;48.702;8.884;2023-07-20T05:38:34;6.50;;;6.00;;
74821;SDS011;63353;48.702;8.884;2023-07-20T05:41:00;6.33;;;5.80;;
74821;SDS011;63353;48.702;8.884;2023-07-20T05:43:27;6.63;;;6.03;;
74821;SDS011;63353;48.702;8.884;2023-07-20T05:45:52;5.90;;;5.33;;
74821;SDS011;63353;48.702;8.884;2023-07-20T05:48:18;6.20;;;5.80;;
74821;SDS011;63353;48.702;8.884;2023-07-20T05:50:44;6.63;;;6.17;;
74821;SDS011;63353;48.702;8.884;2023-07-20T05:53:10;6.50;;;6.07;;
74821;SDS011;63353;48.702;8.884;2023-07-20T05:55:35;6.97;;;6.23;;
74821;SDS011;63353;48.702;8.884;2023-07-20T05:58:04;6.13;;;5.70;;
74821;SDS011;63353;48.702;8.884;2023-07-20T06:00:30;6.40;;;5.80;;
74821;SDS011;63353;48.702;8.884;2023-07-20T06:02:57;6.10;;;5.70;;
74821;SDS011;63353;48.702;8.884;2023-07-20T06:05:22;6.33;;;5.87;;
74821;SDS011;63353;48.702;8.884;2023-07-20T06:07:49;6.20;;;5.80;;
74821;SDS011;63353;48.702;8.884;2023-07-20T06:10:15;6.30;;;5.90;;
74821;SDS011;63353;48.702;8.884;2023-07-20T06:12:41;6.53;;;6.00;;
74821;SDS011;63353;48.702;8.884;2023-07-20T06:15:09;6.40;;;5.90;;
74821;SDS011;63353;48.702;8.884;2023-07-20T06:17:53;6.00;;;5.63;;
74821;SDS011;63353;48.702;8.884;2023-07-20T06:20:21;6.27;;;5.80;;
74821;SDS011;63353;48.702;8.884;2023-07-20T06:22:47;7.70;;;6.23;;
74821;SDS011;63353;48.702;8.884;2023-07-20T06:25:13;6.10;;;5.70;;
74821;SDS011;63353;48.702;8.884;2023-07-20T06:27:38;6.73;;;6.23;;
74821;SDS011;63353;48.702;8.884;2023-07-20T06:30:04;7.03;;;6.53;;
74821;SDS011;63353;48.702;8.884;2023-07-20T06:32:30;6.97;;;6.37;;
74821;SDS011;63353;48.702;8.884;2023-07-20T06:34:56;6.53;;;6.13;;
74821;SDS011;63353;48.702;8.884;2023-07-20T06:37:22;6.70;;;6.20;;
74821;SDS011;63353;48.702;8.884;2023-07-20T06:39:48;6.73;;;6.03;;
74821;SDS011;63353;48.702;8.884;2023-07-20T06:42:13;6.80;;;6.20;;
74821;SDS011;63353;48.702;8.884;2023-07-20T06:44:39;6.47;;;5.90;;
74821;SDS011;63353;48.702;8.884;2023-07-20T06:47:04;6.47;;;6.03;;
74821;SDS011;63353;48.702;8.884;2023-07-20T06:49:30;6.70;;;6.07;;
74821;SDS011;63353;48.702;8.884;2023-07-20T06:51:56;7.07;;;6.33;;
74821;SDS011;63353;48.702;8.884;2023-07-20T06:54:22;6.70;;;6.20;;
74821;SDS011;63353;48.702;8.884;2023-07-20T06:56:47;6.33;;;5.93;;
74821;SDS011;63353;48.702;8.884;2023-07-20T06:59:13;6.47;;;6.07;;
74821;SDS011;63353;48.702;8.884;2023-07-20T07:01:42;6.87;;;6.37;;
74821;SDS011;63353;48.702;8.884;2023-07-20T07:04:07;7.37;;;6.50;;
74821;SDS011;63353;48.702;8.884;2023-07-20T07:06:33;6.67;;;6.20;;
74821;SDS011;63353;48.702;8.884;2023-07-20T07:08:59;6.63;;;6.10;;
74821;SDS011;63353;48.702;8.884;2023-07-20T07:11:31;6.77;;;6.37;;
74821;SDS011;63353;48.702;8.884;2023-07-20T07:13:56;6.40;;;5.93;;
74821;SDS011;63353;48.702;8.884;2023-07-20T07:16:22;6.23;;;5.63;;
74821;SDS011;63353;48.702;8.884;2023-07-20T07:18:49;6.00;;;5.60;;
74821;SDS011;63353;48.702;8.884;2023-07-20T07:21:16;6.40;;;6.00;;
74821;SDS011;63353;48.702;8.884;2023-07-20T07:23:42;6.30;;;5.70;;
74821;SDS011;63353;48.702;8.884;2023-07-20T07:26:09;5.97;;;5.60;;
74821;SDS011;63353;48.702;8.884;2023-07-20T07:28:34;6.27;;;5.83;;
74821;SDS011;63353;48.702;8.884;2023-07-20T07:31:02;6.30;;;5.70;;
74821;SDS011;63353;48.702;8.884;2023-07-20T07:33:29;6.23;;;5.73;;
74821;SDS011;63353;48.702;8.884;2023-07-20T07:35:59;6.97;;;6.43;;
74821;SDS011;63353;48.702;8.884;2023-07-20T07:38:25;6.57;;;6.00;;
74821;SDS011;63353;48.702;8.884;2023-07-20T07:40:50;6.73;;;6.23;;
74821;SDS011;63353;48.702;8.884;2023-07-20T07:43:19;6.47;;;5.97;;
74821;SDS011;63353;48.702;8.884;2023-07-20T07:45:45;6.97;;;6.43;;
74821;SDS011;63353;48.702;8.884;2023-07-20T07:48:10;6.53;;;5.93;;
74821;SDS011;63353;48.702;8.884;2023-07-20T07:50:37;6.33;;;5.83;;
74821;SDS011;63353;48.702;8.884;2023-07-20T07:53:05;7.00;;;6.30;;
74821;SDS011;63353;48.702;8.884;2023-07-20T07:55:34;10.10;;;6.10;;
74821;SDS011;63353;48.702;8.884;2023-07-20T07:58:00;6.07;;;5.67;;
74821;SDS011;63353;48.702;8.884;2023-07-20T08:00:29;6.67;;;5.93;;
74821;SDS011;63353;48.702;8.884;2023-07-20T08:02:55;6.57;;;5.90;;
74821;SDS011;63353;48.702;8.884;2023-07-20T08:05:21;6.73;;;6.23;;
74821;SDS011;63353;48.702;8.884;2023-07-20T08:07:47;6.60;;;6.20;;
74821;SDS011;63353;48.702;8.884;2023-07-20T08:10:12;7.30;;;6.10;;
74821;SDS011;63353;48.702;8.884;2023-07-20T08:12:41;6.30;;;5.90;;
74821;SDS011;63353;48.702;8.884;2023-07-20T08:15:07;6.60;;;6.20;;
74821;SDS011;63353;48.702;8.884;2023-07-20T08:17:32;6.73;;;6.30;;
74821;SDS011;63353;48.702;8.884;2023-07-20T08:19:58;6.50;;;6.00;;
74821;SDS011;63353;48.702;8.884;2023-07-20T08:22:24;6.17;;;5.67;;
74821;SDS011;63353;48.702;8.884;2023-07-20T08:24:49;6.50;;;5.90;;
74821;SDS011;63353;48.702;8.884;2023-07-20T08:27:15;6.40;;;5.90;;
74821;SDS011;63353;48.702;8.884;2023-07-20T08:29:41;6.30;;;5.90;;
74821;SDS011;63353;48.702;8.884;2023-07-20T08:32:06;5.77;;;5.40;;
74821;SDS011;63353;48.702;8.884;2023-07-20T08:34:33;6.13;;;5.70;;
74821;SDS011;63353;48.702;8.884;2023-07-20T08:36:59;6.33;;;5.87;;
74821;SDS011;63353;48.702;8.884;2023-07-20T08:39:24;5.90;;;5.60;;
74821;SDS011;63353;48.702;8.884;2023-07-20T08:41:50;5.83;;;5.30;;
74821;SDS011;63353;48.702;8.884;2023-07-20T08:44:17;6.67;;;4.87;;
74821;SDS011;63353;48.702;8.884;2023-07-20T08:46:43;5.47;;;5.17;;
74821;SDS011;63353;48.702;8.884;2023-07-20T08:49:10;6.43;;;5.73;;
74821;SDS011;63353;48.702;8.884;2023-07-20T08:51:36;6.07;;;5.67;;
74821;SDS011;63353;48.702;8.884;2023-07-20T08:54:02;5.40;;;5.10;;
74821;SDS011;63353;48.702;8.884;2023-07-20T08:56:28;5.43;;;5.13;;
74821;SDS011;63353;48.702;8.884;2023-07-20T08:58:56;6.10;;;5.70;;
74821;SDS011;63353;48.702;8.884;2023-07-20T09:01:22;5.37;;;5.07;;
74821;SDS011;63353;48.702;8.884;2023-07-20T09:03:48;6.20;;;5.23;;
74821;SDS011;63353;48.702;8.884;2023-07-20T09:06:14;5.77;;;5.47;;
74821;SDS011;63353;48.702;8.884;2023-07-20T09:08:41;5.97;;;5.47;;
74821;SDS011;63353;48.702;8.884;2023-07-20T09:11:07;6.00;;;5.50;;
74821;SDS011;63353;48.702;8.884;2023-07-20T09:13:34;5.60;;;5.13;;
74821;SDS011;63353;48.702;8.884;2023-07-20T09:16:00;5.37;;;5.07;;
74821;SDS011;63353;48.702;8.884;2023-07-20T09:18:30;6.10;;;5.80;;
74821;SDS011;63353;48.702;8.884;2023-07-20T09:21:03;5.30;;;5.00;;
74821;SDS011;63353;48.702;8.884;2023-07-20T09:23:33;5.20;;;4.90;;
74821;SDS011;63353;48.702;8.884;2023-07-20T09:26:01;5.40;;;5.10;;
74821;SDS011;63353;48.702;8.884;2023-07-20T09:31:17;5.30;;;5.10;;
74821;SDS011;63353;48.702;8.884;2023-07-20T09:33:44;5.27;;;4.87;;
74821;SDS011;63353;48.702;8.884;2023-07-20T09:36:10;5.47;;;5.17;;
74821;SDS011;63353;48.702;8.884;2023-07-20T09:38:42;5.37;;;4.97;;
74821;SDS011;63353;48.702;8.884;2023-07-20T09:41:08;5.73;;;5.20;;
74821;SDS011;63353;48.702;8.884;2023-07-20T09:43:38;5.47;;;4.97;;
74821;SDS011;63353;48.702;8.884;2023-07-20T09:46:04;5.57;;;5.17;;
74821;SDS011;63353;48.702;8.884;2023-07-20T09:48:30;5.77;;;5.47;;
74821;SDS011;63353;48.702;8.884;2023-07-20T09:50:56;5.17;;;4.87;;
74821;SDS011;63353;48.702;8.884;2023-07-20T09:53:22;5.20;;;4.80;;
74821;SDS011;63353;48.702;8.884;2023-07-20T09:55:50;5.40;;;5.10;;
74821;SDS011;63353;48.702;8.884;2023-07-20T09:58:17;5.23;;;4.93;;
74821;SDS011;63353;48.702;8.884;2023-07-20T10:00:43;4.73;;;4.53;;
74821;SDS011;63353;48.702;8.884;2023-07-20T10:03:17;5.17;;;4.70;;
74821;SDS011;63353;48.702;8.884;2023-07-20T10:05:46;4.80;;;4.60;;
74821;SDS011;63353;48.702;8.884;2023-07-20T10:08:21;5.17;;;4.87;;
74821;SDS011;63353;48.702;8.884;2023-07-20T10:10:49;5.23;;;4.97;;
74821;SDS011;63353;48.702;8.884;2023-07-20T10:13:19;5.40;;;5.00;;
74821;SDS011;63353;48.702;8.884;2023-07-20T10:15:50;5.43;;;5.03;;
74821;SDS011;63353;48.702;8.884;2023-07-20T10:18:30;5.00;;;4.80;;
74821;SDS011;63353;48.702;8.884;2023-07-20T10:21:03;5.97;;;4.57;;
74821;SDS011;63353;48.702;8.884;2023-07-20T10:23:33;5.30;;;5.00;;
74821;SDS011;63353;48.702;8.884;2023-07-20T10:25:59;5.77;;;5.33;;
74821;SDS011;63353;48.702;8.884;2023-07-20T10:28:28;4.90;;;4.60;;
74821;SDS011;63353;48.702;8.884;2023-07-20T10:30:54;5.53;;;5.23;;
74821;SDS011;63353;48.702;8.884;2023-07-20T10:33:19;5.40;;;5.03;;
74821;SDS011;63353;48.702;8.884;2023-07-20T10:38:38;5.20;;;4.80;;
74821;SDS011;63353;48.702;8.884;2023-07-20T10:41:35;5.30;;;4.90;;
74821;SDS011;63353;48.702;8.884;2023-07-20T10:44:08;4.77;;;4.57;;
74821;SDS011;63353;48.702;8.884;2023-07-20T10:49:03;5.15;;;4.85;;
74821;SDS011;63353;48.702;8.884;2023-07-20T10:51:30;5.00;;;4.70;;
74821;SDS011;63353;48.702;8.884;2023-07-20T10:54:08;4.88;;;4.57;;
74821;SDS011;63353;48.702;8.884;2023-07-20T10:56:44;4.75;;;4.53;;
74821;SDS011;63353;48.702;8.884;2023-07-20T11:01:54;5.03;;;4.70;;
74821;SDS011;63353;48.702;8.884;2023-07-20T11:04:37;5.00;;;4.70;;
74821;SDS011;63353;48.702;8.884;2023-07-20T11:07:17;4.90;;;4.60;;
74821;SDS011;63353;48.702;8.884;2023-07-20T11:10:12;4.63;;;4.43;;
74821;SDS011;63353;48.702;8.884;2023-07-20T11:12:40;5.47;;;5.10;;
74821;SDS011;63353;48.702;8.884;2023-07-20T11:15:06;5.00;;;4.80;;
74821;SDS011;63353;48.702;8.884;2023-07-20T11:17:32;4.80;;;4.60;;
74821;SDS011;63353;48.702;8.884;2023-07-20T11:19:59;5.13;;;4.82;;
74821;SDS011;63353;48.702;8.884;2023-07-20T11:22:29;4.78;;;4.38;;
74821;SDS011;63353;48.702;8.884;2023-07-20T11:25:11;5.00;;;4.80;;
74821;SDS011;63353;48.702;8.884;2023-07-20T11:27:43;5.20;;;4.95;;
74821;SDS011;63353;48.702;8.884;2023-07-20T11:30:16;5.32;;;5.13;;
74821;SDS011;63353;48.702;8.884;2023-07-20T11:32:52;5.17;;;4.90;;
74821;SDS011;63353;48.702;8.884;2023-07-20T11:35:18;4.50;;;4.30;;
74821;SDS011;63353;48.702;8.884;2023-07-20T11:37:44;4.68;;;4.43;;
74821;SDS011;63353;48.702;8.884;2023-07-20T11:40:10;4.70;;;4.50;;
74821;SDS011;63353;48.702;8.884;2023-07-20T11:42:36;4.70;;;4.50;;
74821;SDS011;63353;48.702;8.884;2023-07-20T11:45:02;4.60;;;4.30;;
74821;SDS011;63353;48.702;8.884;2023-07-20T11:47:30;4.60;;;4.40;;
74821;SDS011;63353;48.702;8.884;2023-07-20T11:49:55;4.70;;;4.30;;
74821;SDS011;63353;48.702;8.884;2023-07-20T11:52:28;4.70;;;4.50;;
74821;SDS011;63353;48.702;8.884;2023-07-20T11:54:55;4.73;;;4.53;;
74821;SDS011;63353;48.702;8.884;2023-07-20T11:57:22;4.63;;;4.43;;
74821;SDS011;63353;48.702;8.884;2023-07-20T11:59:54;4.70;;;4.50;;
74821;SDS011;63353;48.702;8.884;2023-07-20T12:02:27;5.30;;;5.00;;
74821;SDS011;63353;48.702;8.884;2023-07-20T12:04:56;4.68;;;4.47;;
74821;SDS011;63353;48.702;8.884;2023-07-20T12:07:23;5.03;;;4.72;;
74821;SDS011;63353;48.702;8.884;2023-07-20T12:10:07;5.22;;;5.03;;
74821;SDS011;63353;48.702;8.884;2023-07-20T12:12:39;4.82;;;4.60;;
74821;SDS011;63353;48.702;8.884;2023-07-20T12:15:26;5.03;;;4.82;;
74821;SDS011;63353;48.702;8.884;2023-07-20T12:17:55;5.03;;;4.80;;
74821;SDS011;63353;48.702;8.884;2023-07-20T12:23:00;5.13;;;4.93;;
74821;SDS011;63353;48.702;8.884;2023-07-20T12:25:33;5.30;;;5.03;;
74821;SDS011;63353;48.702;8.884;2023-07-20T12:28:04;5.15;;;4.85;;
74821;SDS011;63353;48.702;8.884;2023-07-20T12:30:31;5.53;;;5.32;;
74821;SDS011;63353;48.702;8.884;2023-07-20T12:32:57;4.78;;;4.50;;
74821;SDS011;63353;48.702;8.884;2023-07-20T12:35:23;5.18;;;4.88;;
74821;SDS011;63353;48.702;8.884;2023-07-20T12:37:54;4.88;;;4.68;;
74821;SDS011;63353;48.702;8.884;2023-07-20T12:40:23;5.10;;;4.78;;
74821;SDS011;63353;48.702;8.884;2023-07-20T12:42:49;5.07;;;4.78;;
74821;SDS011;63353;48.702;8.884;2023-07-20T12:45:14;5.15;;;4.85;;
74821;SDS011;63353;48.702;8.884;2023-07-20T12:47:40;5.25;;;4.93;;
74821;SDS011;63353;48.702;8.884;2023-07-20T12:50:08;5.07;;;4.88;;
74821;SDS011;63353;48.702;8.884;2023-07-20T12:52:38;4.97;;;4.75;;
74821;SDS011;63353;48.702;8.884;2023-07-20T12:55:09;5.38;;;5.07;;
74821;SDS011;63353;48.702;8.884;2023-07-20T12:57:35;4.80;;;4.60;;
74821;SDS011;63353;48.702;8.884;2023-07-20T13:00:05;5.07;;;4.72;;
74821;SDS011;63353;48.702;8.884;2023-07-20T13:02:35;5.38;;;5.03;;
74821;SDS011;63353;48.702;8.884;2023-07-20T13:05:01;4.85;;;4.55;;
74821;SDS011;63353;48.702;8.884;2023-07-20T13:07:34;5.18;;;4.82;;
74821;SDS011;63353;48.702;8.884;2023-07-20T13:10:04;5.20;;;5.00;;
74821;SDS011;63353;48.702;8.884;2023-07-20T13:12:31;5.30;;;5.00;;
74821;SDS011;63353;48.702;8.884;2023-07-20T13:14:58;4.70;;;4.50;;
74821;SDS011;63353;48.702;8.884;2023-07-20T13:17:26;4.75;;;4.60;;
74821;SDS011;63353;48.702;8.884;2023-07-20T13:19:52;4.35;;;4.22;;
74821;SDS011;63353;48.702;8.884;2023-07-20T13:22:17;5.35;;;5.05;;
74821;SDS011;63353;48.702;8.884;2023-07-20T13:24:44;10.52;;;5.70;;
74821;SDS011;63353;48.702;8.884;2023-07-20T13:27:17;6.45;;;5.25;;
74821;SDS011;63353;48.702;8.884;2023-07-20T13:29:43;4.63;;;4.25;;
74821;SDS011;63353;48.702;8.884;2023-07-20T13:32:09;4.63;;;4.43;;
74821;SDS011;63353;48.702;8.884;2023-07-20T13:34:36;4.75;;;4.55;;
74821;SDS011;63353;48.702;8.884;2023-07-20T13:37:02;5.15;;;4.85;;
74821;SDS011;63353;48.702;8.884;2023-07-20T13:39:28;6.65;;;5.00;;
74821;SDS011;63353;48.702;8.884;2023-07-20T13:41:53;4.72;;;4.53;;
74821;SDS011;63353;48.702;8.884;2023-07-20T13:44:20;5.22;;;4.97;;
74821;SDS011;63353;48.702;8.884;2023-07-20T13:46:46;4.97;;;4.68;;
74821;SDS011;63353;48.702;8.884;2023-07-20T13:49:12;5.05;;;4.75;;
74821;SDS011;63353;48.702;8.884;2023-07-20T13:51:37;5.32;;;5.03;;
74821;SDS011;63353;48.702;8.884;2023-07-20T13:54:03;5.75;;;5.35;;
74821;SDS011;63353;48.702;8.884;2023-07-20T13:56:29;5.30;;;5.07;;
74821;SDS011;63353;48.702;8.884;2023-07-20T13:58:54;4.97;;;4.78;;
74821;SDS011;63353;48.702;8.884;2023-07-20T14:01:20;5.22;;;4.95;;
74821;SDS011;63353;48.702;8.884;2023-07-20T14:03:48;5.25;;;5.00;;
74821;SDS011;63353;48.702;8.884;2023-07-20T14:06:14;4.95;;;4.75;;
74821;SDS011;63353;48.702;8.884;2023-07-20T14:08:40;5.47;;;5.28;;
74821;SDS011;63353;48.702;8.884;2023-07-20T14:11:06;5.18;;;4.95;;
74821;SDS011;63353;48.702;8.884;2023-07-20T14:13:32;5.22;;;5.03;;
74821;SDS011;63353;48.702;8.884;2023-07-20T14:15:57;5.80;;;5.60;;
74821;SDS011;63353;48.702;8.884;2023-07-20T14:18:23;5.15;;;4.90;;
74821;SDS011;63353;48.702;8.884;2023-07-20T14:20:49;5.28;;;5.07;;
74821;SDS011;63353;48.702;8.884;2023-07-20T14:23:14;5.82;;;5.47;;
74821;SDS011;63353;48.702;8.884;2023-07-20T14:25:40;4.93;;;4.68;;
74821;SDS011;63353;48.702;8.884;2023-07-20T14:28:07;5.30;;;5.05;;
74821;SDS011;63353;48.702;8.884;2023-07-20T14:30:33;5.30;;;5.00;;
74821;SDS011;63353;48.702;8.884;2023-07-20T14:32:58;5.70;;;5.40;;
74821;SDS011;63353;48.702;8.884;2023-07-20T14:35:24;5.75;;;5.38;;
74821;SDS011;63353;48.702;8.884;2023-07-20T14:37:49;5.32;;;5.03;;
74821;SDS011;63353;48.702;8.884;2023-07-20T14:40:15;5.30;;;5.10;;
74821;SDS011;63353;48.702;8.884;2023-07-20T14:42:41;5.35;;;5.15;;
74821;SDS011;63353;48.702;8.884;2023-07-20T14:45:06;5.72;;;5.32;;
74821;SDS011;63353;48.702;8.884;2023-07-20T14:47:33;5.80;;;5.60;;
74821;SDS011;63353;48.702;8.884;2023-07-20T14:50:00;5.47;;;5.28;;
74821;SDS011;63353;48.702;8.884;2023-07-20T14:52:27;5.38;;;5.18;;
74821;SDS011;63353;48.702;8.884;2023-07-20T14:54:53;5.32;;;5.03;;
74821;SDS011;63353;48.702;8.884;2023-07-20T14:57:19;5.22;;;5.03;;
74821;SDS011;63353;48.702;8.884;2023-07-20T14:59:46;6.10;;;5.80;;
74821;SDS011;63353;48.702;8.884;2023-07-20T15:02:12;5.45;;;5.25;;
74821;SDS011;63353;48.702;8.884;2023-07-20T15:04:55;6.22;;;5.88;;
74821;SDS011;63353;48.702;8.884;2023-07-20T15:07:21;5.30;;;5.00;;
74821;SDS011;63353;48.702;8.884;2023-07-20T15:09:50;5.32;;;5.13;;
74821;SDS011;63353;48.702;8.884;2023-07-20T15:12:16;5.10;;;4.80;;
74821;SDS011;63353;48.702;8.884;2023-07-20T15:14:44;5.35;;;5.07;;
74821;SDS011;63353;48.702;8.884;2023-07-20T15:17:29;6.32;;;5.30;;